Time;durP1;ratioP1;P1;durP2;ratioP2;P2;SDS_P1;SDS_P2;PMS_P1;PMS_P2;Temp;Humidity;BMP_temperature;BMP_pressure;BME280_temperature;BME280_humidity;BME280_pressure;Samples;Min_cycle;Max_cycle;Signal;HPM_P1;HPM_P2
2021/10/24 00:01:45;;;;;;;27.20;6.60;;;;;;;10.44;53.37;101705.19;1730956;82;21019;-62
2021/10/24 00:04:12;;;;;;;23.10;6.40;;;;;;;10.44;54.06;101697.14;1721025;83;21076;-62
2021/10/24 00:06:39;;;;;;;12.82;6.40;;;;;;;10.41;53.89;101715.08;1741947;82;21141;-62
2021/10/24 00:09:21;;;;;;;23.02;6.37;;;;;;;10.37;54.40;101717.36;1741409;82;21106;-61
2021/10/24 00:11:50;;;;;;;26.20;6.95;;;;;;;10.35;54.52;101723.20;1720127;83;21005;-61
2021/10/24 00:14:17;;;;;;;19.95;6.50;;;;;;;10.32;54.14;101725.03;1742725;82;20997;-61
2021/10/24 00:16:54;;;;;;;16.57;6.28;;;;;;;10.31;53.85;101714.33;1742603;82;21812;-61
2021/10/24 00:19:21;;;;;;;13.18;6.03;;;;;;;10.27;53.50;101726.88;1720540;83;21091;-61
2021/10/24 00:21:50;;;;;;;21.48;6.42;;;;;;;10.24;53.62;101732.30;1741527;82;21055;-61
2021/10/24 00:24:17;;;;;;;17.95;6.58;;;;;;;10.20;53.95;101727.92;1735876;82;21004;-61
2021/10/24 00:26:44;;;;;;;19.67;6.35;;;;;;;10.19;54.10;101722.13;1704444;83;21019;-61
2021/10/24 00:29:13;;;;;;;38.48;8.58;;;;;;;10.17;54.52;101730.22;1714538;83;21569;-61
2021/10/24 00:31:40;;;;;;;20.15;6.53;;;;;;;10.19;54.40;101728.83;1741311;82;21119;-61
2021/10/24 00:34:08;;;;;;;15.23;6.15;;;;;;;10.19;54.23;101738.21;1728621;81;21055;-62
2021/10/24 00:36:35;;;;;;;13.03;6.33;;;;;;;10.16;53.92;101743.62;1714623;83;21065;-62
2021/10/24 00:39:03;;;;;;;15.95;5.85;;;;;;;10.16;54.10;101752.53;1741171;82;20944;-61
2021/10/24 00:41:31;;;;;;;16.73;6.28;;;;;;;10.16;53.73;101759.71;1736661;82;21651;-62
2021/10/24 00:44:20;;;;;;;18.37;6.05;;;;;;;10.16;52.98;101755.69;1697065;83;21563;-61
2021/10/24 00:46:58;;;;;;;20.00;6.50;;;;;;;10.13;52.79;101746.37;1711790;83;21535;-62
2021/10/24 00:49:50;;;;;;;16.37;6.55;;;;;;;10.11;52.92;101757.57;1741376;82;21055;-61
2021/10/24 00:52:18;;;;;;;20.05;6.08;;;;;;;10.08;52.86;101744.23;1735621;82;21004;-61
2021/10/24 00:54:54;;;;;;;17.62;6.33;;;;;;;10.09;52.63;101746.00;1714327;83;21525;-61
2021/10/24 00:57:21;;;;;;;18.85;6.87;;;;;;;10.10;52.60;101737.05;1728839;82;22148;-61
2021/10/24 00:59:48;;;;;;;21.55;7.35;;;;;;;10.08;52.74;101746.44;1735027;82;21578;-61
2021/10/24 01:02:27;;;;;;;13.53;6.58;;;;;;;10.08;52.92;101745.57;1712420;83;20923;-61
2021/10/24 01:04:54;;;;;;;21.27;6.65;;;;;;;10.10;53.09;101755.80;1773771;80;21389;-61
2021/10/24 01:22:52;;;;;;;17.62;6.22;;;;;;;9.95;53.83;101747.58;1713915;83;20982;-61
2021/10/24 01:27:58;;;;;;;22.65;6.53;;;;;;;9.92;54.60;101753.85;1774751;80;21148;-61
2021/10/24 01:36:08;;;;;;;14.20;5.72;;;;;;;9.88;55.67;101766.88;1781366;80;21545;-57
2021/10/24 01:41:09;;;;;;;17.77;6.47;;;;;;;9.84;55.72;101787.92;1774328;80;22096;-58
2021/10/24 01:43:36;;;;;;;16.90;7.05;;;;;;;9.82;55.76;101787.03;1772764;80;21092;-58
2021/10/24 01:48:48;;;;;;;;;;;;;;;9.81;55.18;101787.95;1776038;80;21031;-58
2021/10/24 01:58:58;;;;;;;15.23;6.62;;;;;;;9.71;55.73;101785.86;1770653;80;21067;-57
2021/10/24 02:01:27;;;;;;;17.57;7.12;;;;;;;9.70;56.10;101786.33;1777865;80;21912;-59
2021/10/24 02:04:06;;;;;;;25.10;6.80;;;;;;;9.68;56.24;101777.88;1779469;80;21039;-57
2021/10/24 02:06:51;;;;;;;17.65;6.67;;;;;;;9.62;56.58;101773.95;1772703;80;21484;-57
2021/10/24 02:09:31;;;;;;;21.27;6.72;;;;;;;9.56;56.93;101769.56;1769769;80;21055;-61
2021/10/24 02:11:58;;;;;;;19.90;7.05;;;;;;;9.53;57.04;101789.69;1774590;80;21072;-61
2021/10/24 02:14:27;;;;;;;18.77;8.35;;;;;;;9.46;57.04;101792.90;1771531;79;21047;-61
2021/10/24 02:16:54;;;;;;;18.07;7.30;;;;;;;9.43;57.57;101806.33;1779579;80;21438;-63
2021/10/24 02:19:24;;;;;;;17.32;7.12;;;;;;;9.42;57.96;101820.19;1749383;80;21066;-61
2021/10/24 02:29:35;;;;;;;16.80;6.78;;;;;;;9.41;58.14;101817.52;1730267;82;21083;-62
2021/10/24 02:32:03;;;;;;;17.27;7.03;;;;;;;9.36;57.77;101818.91;1697173;83;21117;-62
2021/10/24 02:34:59;;;;;;;17.73;6.25;;;;;;;9.32;57.76;101822.53;1706219;83;21050;-62
2021/10/24 02:37:28;;;;;;;21.60;7.80;;;;;;;9.27;57.29;101841.31;1731019;82;21037;-62
2021/10/24 02:39:56;;;;;;;19.32;7.60;;;;;;;9.24;57.58;101823.09;1737781;82;21132;-62
2021/10/24 02:45:06;;;;;;;15.20;7.05;;;;;;;9.26;57.88;101844.02;1738957;82;21542;-56
2021/10/24 02:47:34;;;;;;;17.70;7.50;;;;;;;9.27;58.07;101844.45;1706486;83;21118;-58
2021/10/24 02:50:01;;;;;;;13.28;5.72;;;;;;;9.31;58.22;101843.51;1737867;82;21059;-57
2021/10/24 02:52:30;;;;;;;17.45;6.47;;;;;;;9.33;58.20;101832.80;1724138;83;21432;-58
2021/10/24 02:54:58;;;;;;;18.45;5.85;;;;;;;9.34;58.44;101831.42;1733575;82;21066;-57
2021/10/24 02:57:26;;;;;;;13.28;5.75;;;;;;;9.36;58.54;101837.64;1729859;81;21038;-58
2021/10/24 03:04:59;;;;;;;17.70;6.28;;;;;;;9.32;58.06;101829.22;1701413;82;21592;-58
2021/10/24 03:07:26;;;;;;;15.98;6.28;;;;;;;9.28;58.31;101811.00;1697867;83;21082;-58
2021/10/24 03:09:53;;;;;;;20.50;5.40;;;;;;;9.25;58.66;101820.84;1699764;83;21427;-58
2021/10/24 03:12:20;;;;;;;13.30;5.50;;;;;;;9.23;58.88;101811.95;1698845;83;21038;-58
2021/10/24 03:14:49;;;;;;;17.65;6.05;;;;;;;9.24;58.82;101822.62;1710217;83;21051;-57
2021/10/24 03:17:17;;;;;;;10.43;5.10;;;;;;;9.21;58.79;101814.63;1737756;82;21795;-57
2021/10/24 03:19:44;;;;;;;12.40;5.10;;;;;;;9.21;58.85;101815.10;1730326;82;21043;-59
2021/10/24 03:22:20;;;;;;;10.25;4.42;;;;;;;9.19;58.98;101826.28;1735532;81;21022;-58
2021/10/24 03:24:48;;;;;;;14.78;4.90;;;;;;;9.15;58.51;101834.31;1712685;81;21057;-58
2021/10/24 03:27:15;;;;;;;16.12;5.45;;;;;;;9.13;58.38;101842.81;1761788;80;21031;-58
2021/10/24 03:29:43;;;;;;;11.00;4.78;;;;;;;9.10;58.81;101852.22;1778597;80;21119;-58
2021/10/24 03:35:08;;;;;;;17.65;5.53;;;;;;;8.99;59.62;101859.49;1773979;80;21027;-58
2021/10/24 03:37:35;;;;;;;14.73;5.45;;;;;;;8.95;60.00;101849.27;1781889;79;21048;-58
2021/10/24 03:43:01;;;;;;;15.48;5.60;;;;;;;8.93;60.20;101860.87;1770820;80;21132;-58
2021/10/24 03:45:56;;;;;;;15.63;5.92;;;;;;;8.89;60.25;101850.67;1771603;80;21075;-57
2021/10/24 03:48:25;;;;;;;17.85;6.40;;;;;;;8.89;60.32;101854.22;1771726;80;21055;-57
2021/10/24 03:50:52;;;;;;;12.82;6.08;;;;;;;8.93;59.97;101851.51;1779607;79;21008;-58
2021/10/24 03:53:19;;;;;;;15.68;5.55;;;;;;;8.92;60.32;101847.97;1777535;79;21036;-58
2021/10/24 03:55:47;;;;;;;21.12;6.30;;;;;;;8.89;60.30;101858.23;1748777;80;21139;-58
2021/10/24 04:01:11;;;;;;;13.90;5.85;;;;;;;8.87;60.67;101869.87;1739129;81;21122;-58
2021/10/24 04:03:38;;;;;;;11.97;5.60;;;;;;;8.81;60.54;101861.45;1780410;80;21095;-59
2021/10/24 04:06:05;;;;;;;12.47;5.35;;;;;;;8.77;60.39;101867.73;1781987;80;21044;-58
2021/10/24 04:08:45;;;;;;;9.08;4.20;;;;;;;8.73;60.38;101864.63;1782584;80;21843;-58
2021/10/24 04:11:12;;;;;;;10.23;4.83;;;;;;;8.68;60.16;101866.03;1775786;79;21242;-57
2021/10/24 04:13:39;;;;;;;13.25;4.95;;;;;;;8.62;59.99;101865.19;1779568;80;21106;-58
2021/10/24 04:16:07;;;;;;;13.40;5.10;;;;;;;8.54;60.01;101863.48;1782197;79;21083;-58
2021/10/24 04:18:54;;;;;;;11.22;4.90;;;;;;;8.50;59.63;101870.19;1776185;80;21094;-57
2021/10/24 04:21:23;;;;;;;14.58;4.92;;;;;;;8.45;59.29;101879.54;1781103;80;21133;-58
2021/10/24 04:23:58;;;;;;;14.95;5.08;;;;;;;8.40;59.56;101877.36;1782578;79;20996;-58
2021/10/24 04:29:00;;;;;;;12.37;4.95;;;;;;;8.28;60.31;101888.56;1763207;80;21289;-58
2021/10/24 04:31:27;;;;;;;12.25;5.03;;;;;;;8.21;60.57;101889.52;1762343;80;21003;-59
2021/10/24 04:33:54;;;;;;;13.15;4.22;;;;;;;8.13;60.48;101886.89;1763760;80;21144;-58
2021/10/24 04:36:34;;;;;;;11.93;4.72;;;;;;;8.05;60.52;101887.41;1755455;81;21047;-57
2021/10/24 04:39:01;;;;;;;9.00;4.35;;;;;;;7.96;60.74;101894.15;1750483;80;21029;-58
2021/10/24 04:41:29;;;;;;;11.48;4.92;;;;;;;7.86;60.87;101895.98;1750236;80;21486;-57
2021/10/24 04:43:56;;;;;;;14.18;4.47;;;;;;;7.77;60.69;101896.01;1747114;80;21064;-58
2021/10/24 04:46:23;;;;;;;16.67;4.92;;;;;;;7.71;60.88;101903.16;1762850;80;21498;-59
2021/10/24 04:51:41;;;;;;;12.07;4.35;;;;;;;7.56;60.87;101921.47;1756444;80;21062;-58
2021/10/24 04:54:08;;;;;;;14.65;5.17;;;;;;;7.47;61.19;101925.95;1757910;80;21641;-58
2021/10/24 04:59:29;;;;;;;13.68;4.47;;;;;;;7.38;61.00;101926.39;1781139;80;21079;-59
2021/10/24 05:01:56;;;;;;;14.25;4.55;;;;;;;7.37;61.06;101932.63;1777935;80;21552;-58
2021/10/24 05:04:23;;;;;;;12.07;5.03;;;;;;;7.34;60.84;101940.64;1789800;80;21519;-58
2021/10/24 05:06:50;;;;;;;17.15;5.30;;;;;;;7.32;60.32;101953.09;1782623;80;21051;-58
2021/10/24 05:11:53;;;;;;;10.58;4.50;;;;;;;7.29;60.42;101944.67;1790076;80;21495;-60
2021/10/24 05:24:39;;;;;;;9.48;3.75;;;;;;;7.48;59.64;101963.75;1780936;80;22432;-61
2021/10/24 05:27:06;;;;;;;12.70;3.92;;;;;;;7.53;59.33;101966.85;1788829;80;21027;-58
2021/10/24 05:29:32;;;;;;;11.00;3.87;;;;;;;7.63;59.35;101970.81;1787203;80;21110;-58
2021/10/24 05:37:27;;;;;;;11.38;4.45;;;;;;;8.11;57.71;101986.20;1779037;80;21461;-62
2021/10/24 05:39:54;;;;;;;15.32;4.47;;;;;;;8.14;57.44;101983.97;1780143;80;21053;-61
2021/10/24 05:45:01;;;;;;;12.33;4.35;;;;;;;8.20;57.44;101990.61;1779768;80;21086;-61
2021/10/24 05:50:00;;;;;;;11.45;3.90;;;;;;;8.25;57.08;101991.93;1790125;80;21065;-62
2021/10/24 05:52:28;;;;;;;9.13;3.67;;;;;;;8.30;56.71;102003.05;1779503;80;21055;-62
2021/10/24 05:54:55;;;;;;;14.25;4.60;;;;;;;8.33;57.04;101990.09;1788547;80;21095;-60
2021/10/24 05:57:23;;;;;;;10.18;4.30;;;;;;;8.40;57.15;101998.53;1781048;80;21500;-62
2021/10/24 06:00:10;;;;;;;12.40;4.47;;;;;;;8.49;57.08;102002.91;1790167;80;21473;-62
2021/10/24 06:08:05;;;;;;;8.30;4.00;;;;;;;8.64;57.26;102007.76;1702106;80;33365;-61
2021/10/24 06:10:34;;;;;;;10.38;4.53;;;;;;;8.65;57.35;102021.56;1781388;79;21501;-61
2021/10/24 06:13:06;;;;;;;10.40;4.55;;;;;;;8.69;57.47;102016.63;1775830;80;21067;-61
2021/10/24 06:15:39;;;;;;;16.37;5.12;;;;;;;8.78;57.38;102018.36;1778143;79;21567;-58
2021/10/24 06:18:07;;;;;;;9.90;4.30;;;;;;;8.81;57.22;102013.88;1769540;79;21086;-61
2021/10/24 06:20:34;;;;;;;17.45;4.58;;;;;;;8.85;56.84;102019.64;1774130;80;21075;-59
2021/10/24 06:26:43;;;;;;;13.00;4.80;;;;;;;8.85;56.57;102024.99;1779806;80;21130;-59
2021/10/24 06:29:10;;;;;;;11.90;4.10;;;;;;;8.83;56.88;102018.77;1756966;80;22322;-59
2021/10/24 06:31:41;;;;;;;15.85;4.78;;;;;;;8.81;56.79;102025.92;1774908;80;21552;-58
2021/10/24 06:34:22;;;;;;;15.93;6.40;;;;;;;8.82;56.86;102023.69;1770963;80;21035;-59
2021/10/24 06:37:04;;;;;;;17.32;6.37;;;;;;;8.82;57.04;102014.32;1781097;80;21032;-58
2021/10/24 06:39:47;;;;;;;14.28;5.58;;;;;;;8.88;57.39;102017.41;1765608;80;21401;-58
2021/10/24 06:42:14;;;;;;;12.82;4.80;;;;;;;8.99;57.51;102028.02;1776261;80;21947;-58
2021/10/24 06:44:43;;;;;;;16.77;5.62;;;;;;;9.05;56.77;102017.27;1710422;82;21113;-58
2021/10/24 06:47:14;;;;;;;15.63;5.10;;;;;;;9.13;57.02;102022.56;1664127;82;21621;-57
2021/10/24 06:49:50;;;;;;;16.75;5.42;;;;;;;9.21;57.03;102027.38;1790174;80;21055;-58
2021/10/24 06:52:38;;;;;;;11.85;4.80;;;;;;;9.34;57.00;102026.81;1781857;80;21464;-59
2021/10/24 06:55:10;;;;;;;9.98;3.95;;;;;;;9.46;56.71;102022.70;1783059;80;22454;-58
2021/10/24 06:57:56;;;;;;;11.48;4.17;;;;;;;9.59;55.28;102039.95;1788090;80;21050;-58
2021/10/24 07:00:51;;;;;;;16.35;4.55;;;;;;;9.63;54.71;102027.00;1734557;81;21562;-59
2021/10/24 07:03:43;;;;;;;11.03;3.87;;;;;;;9.67;54.77;102027.39;1759459;81;21806;-58
2021/10/24 07:07:01;;;;;;;14.07;4.80;;;;;;;9.77;54.41;102033.54;1774285;80;21055;-59
2021/10/24 07:09:58;;;;;;;48.23;22.93;;;;;;;9.81;54.07;102039.73;1786984;80;21480;-57
2021/10/24 07:12:25;;;;;;;45.05;19.75;;;;;;;9.88;54.27;102052.17;1784394;80;21068;-58
2021/10/24 07:14:52;;;;;;;21.82;9.95;;;;;;;9.95;54.22;102031.09;1752714;81;21030;-57
2021/10/24 07:17:25;;;;;;;10.75;4.53;;;;;;;9.98;53.78;102032.39;1787606;80;21086;-58
2021/10/24 07:19:52;;;;;;;9.95;3.35;;;;;;;9.95;53.52;102041.81;1785753;80;21014;-60
2021/10/24 07:22:19;;;;;;;7.37;3.50;;;;;;;9.94;53.26;102044.05;1787122;80;21872;-59
2021/10/24 07:24:48;;;;;;;10.95;3.87;;;;;;;9.93;52.60;102057.45;1742766;80;21071;-58
2021/10/24 07:27:16;;;;;;;9.78;4.17;;;;;;;9.90;52.74;102042.33;1790683;80;21035;-58
2021/10/24 07:29:44;;;;;;;13.13;3.85;;;;;;;9.91;52.98;102050.80;1783352;80;21610;-58
2021/10/24 07:32:11;;;;;;;10.78;4.00;;;;;;;9.93;52.84;102053.00;1783667;80;21812;-59
2021/10/24 07:34:56;;;;;;;10.32;3.60;;;;;;;9.92;52.65;102064.63;1727519;82;21430;-59
2021/10/24 07:37:23;;;;;;;11.97;3.62;;;;;;;9.90;52.66;102049.02;1730311;82;21030;-59
2021/10/24 07:39:50;;;;;;;11.68;3.87;;;;;;;9.86;52.92;102047.28;1749374;81;21578;-58
2021/10/24 07:42:17;;;;;;;14.45;5.90;;;;;;;9.87;53.55;102045.05;1786471;80;21075;-59
2021/10/24 07:53:11;;;;;;;12.75;3.50;;;;;;;10.13;53.73;102044.71;1787403;80;21043;-58
2021/10/24 07:55:40;;;;;;;9.40;3.37;;;;;;;10.21;53.43;102041.94;1789394;80;21083;-59
2021/10/24 07:58:09;;;;;;;12.95;4.22;;;;;;;10.27;52.89;102044.53;1784801;80;21555;-59
2021/10/24 08:00:37;;;;;;;13.95;3.77;;;;;;;10.28;53.18;102046.34;1787730;80;21140;-58
2021/10/24 08:03:06;;;;;;;11.22;4.22;;;;;;;10.28;53.24;102051.70;1789456;80;21078;-58
2021/10/24 08:05:34;;;;;;;15.78;3.37;;;;;;;10.26;53.04;102041.42;1787443;80;21046;-58
2021/10/24 08:08:01;;;;;;;12.58;3.30;;;;;;;10.30;53.67;102061.05;1779756;80;21048;-58
2021/10/24 08:10:29;;;;;;;20.23;5.35;;;;;;;10.37;53.94;102049.79;1789895;80;21578;-58
2021/10/24 08:12:56;;;;;;;15.95;4.85;;;;;;;10.47;53.76;102059.50;1784574;78;21085;-60
2021/10/24 08:15:23;;;;;;;7.17;3.20;;;;;;;10.53;54.02;102040.67;1782563;80;21767;-58
2021/10/24 08:18:03;;;;;;;8.63;3.15;;;;;;;10.62;52.60;102048.14;1791143;80;21051;-60
2021/10/24 08:20:50;;;;;;;8.63;3.00;;;;;;;10.67;52.53;102044.93;1785511;78;21211;-58
2021/10/24 08:23:18;;;;;;;9.88;3.25;;;;;;;10.71;52.45;102042.19;1783344;80;21110;-60
2021/10/24 08:25:46;;;;;;;7.83;3.37;;;;;;;10.80;52.67;102040.27;1762162;80;22126;-60
2021/10/24 08:31:03;;;;;;;7.42;3.05;;;;;;;10.99;51.99;102038.20;1788073;80;21118;-62
2021/10/24 08:33:39;;;;;;;8.15;2.50;;;;;;;11.08;51.11;102046.56;1780565;80;21621;-58
2021/10/24 08:44:29;;;;;;;8.65;2.65;;;;;;;11.33;49.02;102056.41;1787052;80;21532;-58
2021/10/24 08:46:56;;;;;;;12.58;3.87;;;;;;;11.35;48.73;102069.34;1780968;80;21027;-59
2021/10/24 08:49:23;;;;;;;9.25;3.02;;;;;;;11.32;48.68;102057.32;1778909;80;21040;-58
2021/10/24 08:54:41;;;;;;;7.80;2.65;;;;;;;11.39;47.54;102053.64;1780007;80;21051;-60
2021/10/24 08:57:08;;;;;;;6.97;2.10;;;;;;;11.48;47.05;102055.72;1771258;80;21102;-59
2021/10/24 08:59:37;;;;;;;9.53;1.92;;;;;;;11.44;45.91;102093.38;1787149;78;21114;-59
2021/10/24 09:02:18;;;;;;;12.10;2.47;;;;;;;11.40;45.65;102058.09;1785088;80;21094;-58
2021/10/24 09:07:21;;;;;;;;;;;;;;;11.46;45.35;102055.30;1783426;80;21324;-59
2021/10/24 09:14:54;;;;;;;5.85;1.60;;;;;;;11.51;43.83;102044.92;1790456;80;21429;-58
2021/10/24 09:17:32;;;;;;;5.33;1.95;;;;;;;11.57;43.69;102034.95;1781690;80;21622;-59
2021/10/24 09:20:04;;;;;;;7.22;1.98;;;;;;;11.70;43.90;102035.61;1786814;80;21059;-59
2021/10/24 09:22:39;;;;;;;10.78;1.92;;;;;;;11.82;43.67;102051.94;1780217;80;21074;-59
2021/10/24 09:25:54;;;;;;;6.53;1.95;;;;;;;11.80;43.44;102032.73;1783752;80;21250;-57
2021/10/24 09:28:23;;;;;;;7.33;2.30;;;;;;;11.78;44.04;102039.94;1770617;80;21492;-58
2021/10/24 09:31:04;;;;;;;8.45;2.58;;;;;;;11.84;44.65;102041.18;1782044;80;21129;-59
2021/10/24 09:33:34;;;;;;;6.62;2.55;;;;;;;11.98;44.76;102032.84;1773031;80;21535;-58
2021/10/24 09:36:01;;;;;;;9.50;2.95;;;;;;;12.13;44.43;102041.07;1781065;79;21028;-58
2021/10/24 09:38:47;;;;;;;12.82;3.10;;;;;;;12.23;44.41;102022.47;1777982;80;21028;-59
2021/10/24 09:46:35;;;;;;;17.90;10.32;;;;;;;12.07;42.65;102027.29;1770699;80;21051;-58
2021/10/24 09:49:02;;;;;;;9.70;2.37;;;;;;;11.97;42.44;102033.28;1781157;79;20971;-58
2021/10/24 09:54:02;;;;;;;4.97;2.10;;;;;;;11.95;43.10;102031.09;1774800;80;21048;-58
2021/10/24 10:06:44;;;;;;;7.40;2.87;;;;;;;12.13;42.19;102020.43;1765264;80;21573;-59
2021/10/24 10:09:56;;;;;;;5.28;2.00;;;;;;;12.21;42.38;102041.78;1777131;80;21876;-58
2021/10/24 10:12:22;;;;;;;6.15;2.00;;;;;;;12.28;41.72;102045.23;1779830;80;21071;-60
2021/10/24 10:14:54;;;;;;;7.60;1.92;;;;;;;12.25;42.12;102032.73;1753480;80;21409;-58
2021/10/24 10:17:24;;;;;;;9.55;2.22;;;;;;;12.29;42.21;102022.36;1781438;79;22243;-58
2021/10/24 10:23:02;;;;;;;5.40;2.35;;;;;;;12.34;42.36;102059.02;1779496;80;21897;-59
2021/10/24 10:25:32;;;;;;;4.72;1.62;;;;;;;12.30;42.65;102065.81;1781392;80;21444;-58
2021/10/24 10:28:33;;;;;;;9.98;2.05;;;;;;;12.18;42.18;102067.39;1780932;80;21032;-59
2021/10/24 10:31:14;;;;;;;8.88;2.20;;;;;;;12.03;42.92;102029.14;1783822;80;21075;-59
2021/10/24 10:33:41;;;;;;;5.58;2.10;;;;;;;12.03;43.22;102026.45;1787804;80;21070;-58
2021/10/24 10:36:09;;;;;;;7.20;2.10;;;;;;;12.12;43.65;102021.83;1783330;80;21199;-59
2021/10/24 10:41:24;;;;;;;5.90;2.15;;;;;;;12.19;42.08;102039.59;1785043;80;21059;-60
2021/10/24 10:44:19;;;;;;;8.35;2.47;;;;;;;11.98;42.23;102031.02;1698010;82;21090;-59
2021/10/24 10:49:34;;;;;;;7.90;3.30;;;;;;;11.68;44.13;102045.50;1786994;80;21132;-58
2021/10/24 10:52:37;;;;;;;6.08;2.15;;;;;;;11.81;44.90;102045.24;1781927;80;21099;-58
2021/10/24 10:57:50;;;;;;;9.45;3.42;;;;;;;12.03;45.13;102047.09;1783476;80;21020;-58
2021/10/24 11:00:36;;;;;;;7.97;2.98;;;;;;;12.02;46.07;102055.59;1787662;80;21035;-58
2021/10/24 11:03:04;;;;;;;4.95;2.70;;;;;;;12.00;46.03;102046.65;1781372;78;21453;-59
2021/10/24 11:11:47;;;;;;;8.75;2.27;;;;;;;12.02;46.37;102052.91;1786825;80;21245;-61
2021/10/24 11:14:29;;;;;;;6.15;2.12;;;;;;;12.09;44.47;102051.47;1788573;80;21055;-59
2021/10/24 11:19:36;;;;;;;8.78;3.37;;;;;;;11.97;44.14;102036.44;1784979;80;21480;-59
2021/10/24 11:22:18;;;;;;;5.55;2.35;;;;;;;12.02;44.06;102017.97;1786357;80;21111;-58
2021/10/24 11:24:52;;;;;;;7.00;2.65;;;;;;;12.16;43.83;102014.12;1780265;80;21059;-59
2021/10/24 11:27:29;;;;;;;6.65;2.98;;;;;;;12.29;44.22;102046.56;1788279;80;21541;-58
2021/10/24 11:30:37;;;;;;;10.00;2.77;;;;;;;12.33;44.45;102054.08;1773952;79;21092;-60
2021/10/24 11:33:05;;;;;;;8.83;2.60;;;;;;;12.28;44.00;102044.79;1774899;80;21024;-59
2021/10/24 11:35:33;;;;;;;8.73;2.92;;;;;;;12.20;43.91;102039.14;1776294;80;21064;-59
2021/10/24 11:38:07;;;;;;;5.72;2.30;;;;;;;12.14;43.86;102037.46;1748123;80;21552;-58
2021/10/24 11:40:45;;;;;;;7.22;2.50;;;;;;;12.17;43.77;102049.49;1768559;80;20992;-59
2021/10/24 11:48:43;;;;;;;5.97;2.27;;;;;;;12.16;43.56;102064.76;1775086;80;21051;-62
2021/10/24 11:51:11;;;;;;;9.88;3.10;;;;;;;12.04;44.20;102065.86;1780821;80;21044;-62
2021/10/24 11:56:39;;;;;;;9.35;3.37;;;;;;;11.99;45.57;102065.04;1780977;80;21305;-63
2021/10/24 11:59:16;;;;;;;6.37;2.83;;;;;;;11.99;45.36;102073.11;1765231;80;21327;-60
2021/10/24 12:04:39;;;;;;;16.30;5.00;;;;;;;11.84;45.81;102065.37;1778655;80;21051;-62
2021/10/24 12:07:07;;;;;;;12.28;3.72;;;;;;;11.83;46.18;102064.47;1781181;80;21004;-59
2021/10/24 12:09:47;;;;;;;13.43;3.60;;;;;;;11.84;46.63;102066.71;1775706;79;21513;-60
2021/10/24 12:12:25;;;;;;;11.38;3.27;;;;;;;11.80;46.78;102089.16;1779085;80;21106;-58
2021/10/24 12:14:59;;;;;;;10.55;3.67;;;;;;;11.77;46.94;102085.19;1777119;79;21020;-58
2021/10/24 12:26:32;;;;;;;8.70;2.15;;;;;;;11.85;45.33;102080.58;1778329;80;21104;-62
2021/10/24 12:36:35;;;;;;;6.57;1.93;;;;;;;11.74;45.46;102111.20;1832811;77;21986;-62
2021/10/24 12:39:06;;;;;;;5.55;2.37;;;;;;;11.61;45.84;102101.61;1827653;77;21460;-58
2021/10/24 12:41:45;;;;;;;7.33;2.22;;;;;;;11.54;46.50;102102.61;1832913;77;21010;-60
2021/10/24 12:49:32;;;;;;;7.55;2.75;;;;;;;11.59;47.00;102103.41;1848907;77;21138;-62
2021/10/24 12:55:28;;;;;;;5.75;2.15;;;;;;;11.62;46.63;102103.38;1802549;78;21049;-62
2021/10/24 13:00:42;;;;;;;8.35;2.50;;;;;;;11.48;45.31;102105.41;1798762;78;21894;-64
2021/10/24 13:03:09;;;;;;;4.80;2.20;;;;;;;11.43;45.49;102101.45;1802106;78;21784;-62
2021/10/24 13:05:36;;;;;;;4.37;2.17;;;;;;;11.45;45.52;102112.61;1772040;80;21114;-63
2021/10/24 13:13:09;;;;;;;5.05;2.33;;;;;;;11.40;45.39;102131.95;1790148;79;21120;-63
2021/10/24 13:15:38;;;;;;;5.58;2.67;;;;;;;11.31;45.69;102125.36;1780722;79;21560;-62
2021/10/24 13:18:05;;;;;;;5.50;2.60;;;;;;;11.25;46.11;102132.19;1784580;79;21011;-63
2021/10/24 13:20:38;;;;;;;9.65;2.37;;;;;;;11.22;46.72;102129.55;1781727;79;21110;-62
2021/10/24 13:23:06;;;;;;;11.20;3.17;;;;;;;11.21;46.51;102131.80;1782712;79;21020;-62
2021/10/24 13:28:07;;;;;;;;;;;;;;;11.08;47.06;102133.80;1783691;79;21102;-64
2021/10/24 13:33:18;;;;;;;9.88;3.00;;;;;;;11.04;48.09;102136.97;1771408;80;21465;-63
2021/10/24 13:38:45;;;;;;;8.10;3.55;;;;;;;11.08;47.45;102134.66;1770778;80;21031;-63
2021/10/24 13:41:12;;;;;;;8.08;2.77;;;;;;;11.09;47.63;102140.46;1768586;80;21099;-62
2021/10/24 13:46:07;;;;;;;8.55;2.98;;;;;;;11.02;46.97;102149.05;1771251;80;21009;-63
2021/10/24 13:48:35;;;;;;;8.63;2.60;;;;;;;10.96;47.19;102142.44;1773291;80;21074;-62
2021/10/24 13:51:16;;;;;;;7.55;2.58;;;;;;;10.91;47.57;102155.48;1768938;80;20972;-62
2021/10/24 13:53:43;;;;;;;7.83;2.47;;;;;;;10.83;47.72;102172.58;1762658;80;21137;-63
2021/10/24 13:56:10;;;;;;;6.65;2.70;;;;;;;10.76;47.33;102161.52;1764725;80;21104;-62
2021/10/24 14:06:55;;;;;;;6.85;2.92;;;;;;;10.63;47.40;102180.91;1758598;80;21803;-63
2021/10/24 14:09:22;;;;;;;9.65;3.37;;;;;;;10.63;47.87;102165.25;1758937;80;21008;-62
2021/10/24 14:11:49;;;;;;;5.67;2.62;;;;;;;10.64;48.10;102190.72;1762999;80;21411;-62
2021/10/24 14:17:14;;;;;;;8.10;2.52;;;;;;;10.62;47.59;102207.30;1759192;80;21067;-63
2021/10/24 14:19:41;;;;;;;4.55;2.60;;;;;;;10.58;47.79;102190.77;1758785;80;21209;-61
2021/10/24 14:22:08;;;;;;;9.43;2.60;;;;;;;10.56;47.96;102192.59;1756928;80;21060;-62
2021/10/24 14:27:46;;;;;;;7.35;3.22;;;;;;;10.49;48.61;102198.47;1758810;80;21382;-61
2021/10/24 14:35:32;;;;;;;8.28;3.10;;;;;;;10.48;47.75;102222.64;1763454;80;22260;-63
2021/10/24 14:37:59;;;;;;;6.05;2.90;;;;;;;10.44;47.15;102212.39;1764813;80;21087;-62
2021/10/24 14:43:08;;;;;;;7.17;2.20;;;;;;;10.41;47.07;102213.77;1765521;80;21488;-62
2021/10/24 14:45:35;;;;;;;7.03;2.80;;;;;;;10.36;46.99;102228.52;1766153;80;21135;-61
2021/10/24 14:48:03;;;;;;;5.72;2.58;;;;;;;10.30;47.41;102233.95;1759250;80;21091;-63
2021/10/24 14:50:36;;;;;;;6.78;2.55;;;;;;;10.27;46.97;102239.34;1757875;80;21085;-62
2021/10/24 14:53:03;;;;;;;8.40;2.40;;;;;;;10.20;46.54;102234.97;1767066;80;21060;-58
2021/10/24 14:55:30;;;;;;;6.80;3.15;;;;;;;10.15;46.18;102241.23;1761848;80;21170;-59
2021/10/24 15:03:47;;;;;;;9.03;4.87;;;;;;;10.06;46.88;102244.45;1768056;80;21125;-58
2021/10/24 15:06:20;;;;;;;11.53;2.95;;;;;;;10.04;47.30;102256.06;1768962;80;21052;-58
2021/10/24 15:08:47;;;;;;;4.58;2.42;;;;;;;10.03;47.39;102274.39;1770295;80;21040;-60
2021/10/24 15:11:14;;;;;;;6.42;2.60;;;;;;;10.02;47.20;102273.95;1758741;80;21110;-59
2021/10/24 15:13:42;;;;;;;6.97;3.10;;;;;;;10.01;47.40;102262.80;1769212;80;22193;-59
2021/10/24 15:21:21;;;;;;;11.50;3.90;;;;;;;9.97;47.50;102276.26;1769496;80;21068;-59
2021/10/24 15:23:49;;;;;;;9.53;3.83;;;;;;;9.94;47.58;102267.78;1761430;80;21660;-57
2021/10/24 15:26:19;;;;;;;13.50;4.95;;;;;;;9.93;47.90;102268.68;1766343;80;21036;-59
2021/10/24 15:28:57;;;;;;;11.53;4.17;;;;;;;9.92;47.94;102264.23;1757358;80;21139;-58
2021/10/24 15:31:30;;;;;;;12.30;4.25;;;;;;;9.91;47.43;102270.92;1753752;80;21048;-59
2021/10/24 15:34:11;;;;;;;8.93;3.58;;;;;;;9.88;47.71;102266.50;1749785;80;21102;-58
2021/10/24 15:36:40;;;;;;;9.93;4.10;;;;;;;9.84;47.42;102270.98;1781299;80;21174;-58
2021/10/24 15:44:46;;;;;;;6.35;3.80;;;;;;;9.82;47.98;102291.97;1781509;80;21580;-63
2021/10/24 15:47:13;;;;;;;11.28;3.95;;;;;;;9.81;47.99;102284.84;1763650;80;21096;-61
2021/10/24 15:49:41;;;;;;;9.55;4.00;;;;;;;9.80;47.61;102289.75;1779221;80;21133;-58
2021/10/24 15:52:10;;;;;;;7.92;3.70;;;;;;;9.79;47.56;102293.33;1766109;80;21095;-59
2021/10/24 15:54:51;;;;;;;9.83;4.80;;;;;;;9.77;47.86;102302.73;1773843;80;21095;-62
2021/10/24 15:57:18;;;;;;;12.85;4.97;;;;;;;9.77;48.00;102299.16;1784068;80;21055;-63
2021/10/24 15:59:45;;;;;;;16.02;4.90;;;;;;;9.77;48.03;102305.86;1775375;80;21087;-62
2021/10/24 16:02:23;;;;;;;12.60;4.85;;;;;;;9.75;48.12;102308.56;1781361;80;21133;-62
2021/10/24 16:04:50;;;;;;;9.63;4.90;;;;;;;9.75;48.21;102312.58;1775537;80;21354;-62
2021/10/24 16:07:17;;;;;;;11.48;4.47;;;;;;;9.74;48.18;102319.71;1777724;80;21110;-63
2021/10/24 16:09:45;;;;;;;10.90;4.78;;;;;;;9.72;48.29;102320.17;1777816;80;21092;-62